createdAt,value
2018-09-17T00:00:57.710Z,86.90
2018-09-17T00:03:26.193Z,86.90
2018-09-17T00:05:54.710Z,86.70
2018-09-17T00:08:23.219Z,86.60
2018-09-17T00:10:51.717Z,87.00
2018-09-17T00:13:20.206Z,86.90
2018-09-17T00:15:48.782Z,86.60
2018-09-17T00:18:17.265Z,87.00
2018-09-17T00:20:45.781Z,86.70
2018-09-17T00:23:14.285Z,87.10
2018-09-17T00:25:42.803Z,86.80
2018-09-17T00:28:11.303Z,86.60
2018-09-17T00:30:39.831Z,86.60
2018-09-17T00:33:08.446Z,86.90
2018-09-17T00:35:37.013Z,87.20
2018-09-17T00:38:05.816Z,86.50
2018-09-17T00:40:34.633Z,86.50
2018-09-17T00:43:03.142Z,86.70
2018-09-17T00:45:31.705Z,86.80
2018-09-17T00:48:00.206Z,87.00
2018-09-17T00:50:28.725Z,86.70
2018-09-17T00:52:57.234Z,86.70
2018-09-17T00:55:25.774Z,86.80
2018-09-17T00:57:54.314Z,86.80
2018-09-17T01:00:22.886Z,86.90
2018-09-17T01:02:51.449Z,86.80
2018-09-17T01:05:19.985Z,87.00
2018-09-17T01:07:48.500Z,86.60
2018-09-17T01:10:17.053Z,86.70
2018-09-17T01:12:45.569Z,87.00
2018-09-17T01:15:14.106Z,86.70
2018-09-17T01:17:42.678Z,86.90
2018-09-17T01:20:11.466Z,86.80
2018-09-17T01:22:40.007Z,86.90
2018-09-17T01:25:08.623Z,86.80
2018-09-17T01:27:37.143Z,86.80
2018-09-17T01:30:05.680Z,86.70
2018-09-17T01:32:34.383Z,86.70
2018-09-17T01:35:02.927Z,86.80
2018-09-17T01:37:31.459Z,86.70
2018-09-17T01:39:59.975Z,87.00
2018-09-17T01:42:28.507Z,86.80
2018-09-17T01:44:57.031Z,86.80
2018-09-17T01:47:25.551Z,86.70
2018-09-17T01:49:54.041Z,86.70
2018-09-17T01:52:22.570Z,86.80
2018-09-17T01:54:51.078Z,86.70
2018-09-17T01:57:19.626Z,86.70
2018-09-17T01:59:48.140Z,87.40
2018-09-17T02:02:16.678Z,86.60
2018-09-17T02:04:45.243Z,86.60
2018-09-17T02:07:13.794Z,86.60
2018-09-17T02:09:42.524Z,86.60
2018-09-17T02:12:13.269Z,87.40
2018-09-17T02:14:42.559Z,86.50
2018-09-17T02:17:11.249Z,86.60
2018-09-17T02:19:40.041Z,86.60
2018-09-17T02:22:09.347Z,86.60
2018-09-17T02:24:37.907Z,86.70
2018-09-17T02:27:06.515Z,86.50
2018-09-17T02:29:35.062Z,86.50
2018-09-17T02:32:03.621Z,86.40
2018-09-17T02:34:32.133Z,86.50
2018-09-17T02:37:00.670Z,86.60
2018-09-17T02:39:29.186Z,86.30
2018-09-17T02:41:57.706Z,86.40
2018-09-17T02:44:26.218Z,86.40
2018-09-17T02:46:54.750Z,86.50
2018-09-17T02:49:23.293Z,86.30
2018-09-17T02:51:51.871Z,86.20
2018-09-17T02:54:20.399Z,86.30
2018-09-17T02:56:48.997Z,86.30
2018-09-17T02:59:17.518Z,86.30
2018-09-17T03:01:46.094Z,86.10
2018-09-17T03:04:14.674Z,86.20
2018-09-17T03:06:43.375Z,86.20
2018-09-17T03:09:11.939Z,86.10
2018-09-17T03:11:40.490Z,86.10
2018-09-17T03:14:09.093Z,86.00
2018-09-17T03:16:48.753Z,86.00
2018-09-17T03:19:17.311Z,85.80
2018-09-17T03:21:45.930Z,86.00
2018-09-17T03:24:14.502Z,85.80
2018-09-17T03:26:43.040Z,85.80
2018-09-17T03:29:11.676Z,85.80
2018-09-17T03:31:40.182Z,85.80
2018-09-17T03:34:08.706Z,85.70
2018-09-17T03:36:37.251Z,85.70
2018-09-17T03:39:07.045Z,85.70
2018-09-17T03:41:35.545Z,85.80
2018-09-17T03:44:04.090Z,85.70
2018-09-17T03:46:32.629Z,85.70
2018-09-17T03:49:01.183Z,85.80
2018-09-17T03:51:29.703Z,85.80
2018-09-17T03:53:58.237Z,85.80
2018-09-17T03:56:26.827Z,85.90
2018-09-17T03:58:55.426Z,85.90
2018-09-17T04:01:23.950Z,85.90
2018-09-17T04:03:52.482Z,85.90
2018-09-17T04:06:21.002Z,85.70
2018-09-17T04:08:49.707Z,85.70
2018-09-17T04:11:18.226Z,85.70
2018-09-17T04:13:46.753Z,85.50
2018-09-17T04:16:15.291Z,85.40
2018-09-17T04:18:43.870Z,85.40
2018-09-17T04:21:12.384Z,85.30
2018-09-17T04:23:41.029Z,85.10
2018-09-17T04:26:10.785Z,85.20
2018-09-17T04:28:39.754Z,85.10
2018-09-17T04:31:08.310Z,85.10
2018-09-17T04:33:38.393Z,85.10
2018-09-17T04:36:07.237Z,85.00
2018-09-17T04:38:35.778Z,85.10
2018-09-17T04:41:04.791Z,85.10
2018-09-17T04:43:33.347Z,85.10
2018-09-17T04:46:01.952Z,85.20
2018-09-17T04:48:30.749Z,85.10
2018-09-17T04:50:59.245Z,85.20
2018-09-17T04:53:27.833Z,85.20
2018-09-17T04:55:56.370Z,85.10
2018-09-17T04:58:25.405Z,85.20
2018-09-17T05:00:53.958Z,85.30
2018-09-17T05:03:22.488Z,85.20
2018-09-17T05:05:50.985Z,85.20
2018-09-17T05:08:19.538Z,85.10
2018-09-17T05:10:49.148Z,85.00
2018-09-17T05:13:17.718Z,84.90
2018-09-17T05:15:46.254Z,84.90
2018-09-17T05:18:14.760Z,84.90
2018-09-17T05:20:43.331Z,84.80
2018-09-17T05:23:11.810Z,84.70
2018-09-17T05:25:40.356Z,84.70
2018-09-17T05:28:08.897Z,85.40
2018-09-17T05:30:37.422Z,84.60
2018-09-17T05:33:05.956Z,84.60
2018-09-17T05:35:34.526Z,84.50
2018-09-17T05:38:03.053Z,84.60
2018-09-17T05:40:31.610Z,84.60
2018-09-17T05:43:00.132Z,84.60
2018-09-17T05:45:28.665Z,84.70
2018-09-17T05:47:57.184Z,84.70
2018-09-17T05:50:25.753Z,84.70
2018-09-17T05:52:54.353Z,84.80
2018-09-17T05:55:22.895Z,84.80
2018-09-17T05:57:51.406Z,84.80
2018-09-17T06:00:19.984Z,84.90
2018-09-17T06:02:48.487Z,85.00
2018-09-17T06:05:17.091Z,85.10
2018-09-17T06:07:45.849Z,85.10
2018-09-17T06:10:15.082Z,85.30
2018-09-17T06:12:45.311Z,85.40
2018-09-17T06:15:14.978Z,85.40
2018-09-17T06:17:44.361Z,85.50
2018-09-17T06:20:12.978Z,85.70
2018-09-17T06:22:41.511Z,85.80
2018-09-17T06:25:10.478Z,86.00
2018-09-17T06:27:39.732Z,86.90
2018-09-17T06:30:08.545Z,86.90
2018-09-17T06:32:38.271Z,86.10
2018-09-17T06:35:07.253Z,86.10
2018-09-17T06:37:35.829Z,86.30
2018-09-17T06:40:04.615Z,86.40
2018-09-17T06:42:33.231Z,86.40
2018-09-17T06:45:01.844Z,86.40
2018-09-17T06:47:30.361Z,86.50
2018-09-17T06:49:58.989Z,86.70
2018-09-17T06:52:27.515Z,86.70
2018-09-17T06:54:56.097Z,86.80
2018-09-17T06:57:24.618Z,86.80
2018-09-17T06:59:53.194Z,86.60
2018-09-17T07:02:21.733Z,86.50
2018-09-17T07:04:50.243Z,86.40
2018-09-17T07:07:18.780Z,86.40
2018-09-17T07:09:47.587Z,86.30
2018-09-17T07:12:16.169Z,86.20
2018-09-17T07:14:44.702Z,86.20
2018-09-17T07:17:13.240Z,86.20
2018-09-17T07:19:41.865Z,87.00
2018-09-17T07:22:10.406Z,86.30
2018-09-17T07:24:39.059Z,86.30
2018-09-17T07:27:08.677Z,86.60
2018-09-17T07:29:37.197Z,94.10
2018-09-17T07:32:05.973Z,95.60
2018-09-17T07:34:34.590Z,94.60
2018-09-17T07:37:05.430Z,94.00
2018-09-17T07:39:34.051Z,93.30
2018-09-17T07:42:02.654Z,93.50
2018-09-17T07:44:31.222Z,92.60
2018-09-17T07:46:59.763Z,92.70
2018-09-17T07:49:28.270Z,92.80
2018-09-17T07:51:56.801Z,92.70
2018-09-17T07:54:25.370Z,92.50
2018-09-17T07:56:53.935Z,92.70
2018-09-17T07:59:22.445Z,92.50
2018-09-17T08:01:50.974Z,91.90
2018-09-17T08:04:19.489Z,92.10
2018-09-17T08:06:48.031Z,92.20
2018-09-17T08:09:16.570Z,92.20
2018-09-17T08:11:45.407Z,91.90
2018-09-17T08:14:15.503Z,92.60
2018-09-17T08:16:44.334Z,92.00
2018-09-17T08:19:12.872Z,92.00
2018-09-17T08:21:41.459Z,91.90
2018-09-17T08:24:09.970Z,92.10
2018-09-17T08:26:38.541Z,91.80
2018-09-17T08:29:08.149Z,91.80
2018-09-17T08:31:36.787Z,92.00
2018-09-17T08:34:05.301Z,92.00
2018-09-17T08:36:33.870Z,92.10
2018-09-17T08:39:02.550Z,92.30
2018-09-17T08:41:31.104Z,91.90
2018-09-17T08:43:59.621Z,91.70
2018-09-17T08:46:28.178Z,91.80
2018-09-17T08:48:56.684Z,92.10
2018-09-17T08:51:25.217Z,91.80
2018-09-17T08:53:53.771Z,93.60
2018-09-17T08:56:26.505Z,92.20
2018-09-17T08:59:03.231Z,92.10
2018-09-17T09:01:37.203Z,92.10
2018-09-17T09:04:11.199Z,92.40
2018-09-17T09:06:45.183Z,92.00
2018-09-17T09:09:14.094Z,91.80
2018-09-17T09:11:47.723Z,91.90
2018-09-17T09:14:21.714Z,91.80
2018-09-17T09:16:50.222Z,91.40
2018-09-17T09:19:18.801Z,91.40
2018-09-17T09:21:47.322Z,91.10
2018-09-17T09:24:15.861Z,91.50
2018-09-17T09:26:44.422Z,91.30
2018-09-17T09:29:12.970Z,91.10
2018-09-17T09:31:41.495Z,91.10
2018-09-17T09:34:10.029Z,91.00
2018-09-17T09:36:38.579Z,91.00
2018-09-17T09:39:09.715Z,91.10
2018-09-17T09:41:38.235Z,90.90
2018-09-17T09:44:06.784Z,90.80
2018-09-17T09:46:35.336Z,90.90
2018-09-17T09:49:03.883Z,90.50
2018-09-17T09:51:32.676Z,90.50
2018-09-17T09:54:01.210Z,90.20
2018-09-17T09:56:29.718Z,90.60
2018-09-17T09:58:58.520Z,90.00
2018-09-17T10:01:28.221Z,90.00
2018-09-17T10:04:02.110Z,89.70
2018-09-17T10:06:30.661Z,90.00
2018-09-17T10:10:07.291Z,88.80
2018-09-17T10:12:41.018Z,88.20
2018-09-17T10:15:16.045Z,88.10
2018-09-17T10:17:49.902Z,87.90
2018-09-17T10:20:18.469Z,88.00
2018-09-17T10:22:46.975Z,87.50
2018-09-17T10:25:15.592Z,86.90
2018-09-17T10:27:44.088Z,87.30
2018-09-17T10:30:12.617Z,87.50
2018-09-17T10:32:41.205Z,87.00
2018-09-17T10:35:09.780Z,87.00
2018-09-17T10:37:38.292Z,87.70
2018-09-17T10:40:06.905Z,87.80
2018-09-17T10:42:35.422Z,90.90
2018-09-17T10:45:04.031Z,91.30
2018-09-17T10:47:32.554Z,93.00
2018-09-17T10:50:01.102Z,94.00
2018-09-17T10:52:29.616Z,99.40
2018-09-17T10:54:58.167Z,98.10
2018-09-17T10:57:26.738Z,98.90
2018-09-17T10:59:55.244Z,99.20
2018-09-17T11:02:23.788Z,99.80
2018-09-17T11:04:52.374Z,98.80
2018-09-17T11:07:20.877Z,98.20
2018-09-17T11:09:49.505Z,96.00
2018-09-17T11:12:18.038Z,95.20
2018-09-17T11:14:46.575Z,95.30
2018-09-17T11:17:15.185Z,95.10
2018-09-17T11:19:43.737Z,95.10
2018-09-17T11:24:40.434Z,99.90
2018-09-17T11:32:05.486Z,98.60
2018-09-17T11:34:34.034Z,92.00
2018-09-17T11:37:02.599Z,92.10
2018-09-17T11:39:31.119Z,90.90
2018-09-17T11:41:59.748Z,91.30
2018-09-17T11:44:28.414Z,91.60
2018-09-17T11:46:56.965Z,91.00
2018-09-17T12:18:11.761Z,98.40
2018-09-17T12:20:40.322Z,74.60
2018-09-17T12:23:09.528Z,77.10
2018-09-17T12:28:06.477Z,98.70
2018-09-17T12:33:03.238Z,99.30
2018-09-17T12:38:00.837Z,99.90
2018-09-17T12:40:30.461Z,75.20
2018-09-17T12:42:59.014Z,71.80
2018-09-17T12:45:27.541Z,71.50
2018-09-17T12:47:56.401Z,70.40
2018-09-17T12:50:24.906Z,67.50
2018-09-17T12:52:53.451Z,66.80
2018-09-17T12:55:21.993Z,66.60
2018-09-17T12:57:50.535Z,66.90
2018-09-17T13:00:19.097Z,66.40
2018-09-17T13:02:47.643Z,66.70
2018-09-17T13:05:16.178Z,66.60
2018-09-17T13:07:44.721Z,66.10
2018-09-17T13:10:13.249Z,66.20
2018-09-17T13:12:41.917Z,66.40
2018-09-17T13:15:10.424Z,66.50
2018-09-17T13:17:39.092Z,66.50
2018-09-17T13:20:08.702Z,66.00
2018-09-17T13:22:37.283Z,66.00
2018-09-17T13:25:05.916Z,65.70
2018-09-17T13:27:34.473Z,66.00
2018-09-17T13:30:03.037Z,65.80
2018-09-17T13:32:31.682Z,66.40
2018-09-17T13:35:00.234Z,66.50
2018-09-17T13:37:28.791Z,66.40
2018-09-17T13:39:57.355Z,66.50
2018-09-17T13:42:25.987Z,66.30
2018-09-17T13:44:54.640Z,66.10
2018-09-17T13:47:23.423Z,66.40
2018-09-17T13:49:52.366Z,66.10
2018-09-17T13:52:21.509Z,66.40
2018-09-17T13:54:50.056Z,65.70
2018-09-17T13:57:18.582Z,66.10
2018-09-17T13:59:47.300Z,66.40
2018-09-17T14:02:15.835Z,66.40
2018-09-17T14:04:44.361Z,66.40
2018-09-17T14:07:12.943Z,66.30
2018-09-17T14:09:41.485Z,66.40
2018-09-17T14:12:10.051Z,66.30
2018-09-17T14:14:38.600Z,66.30
2018-09-17T14:17:07.851Z,66.60
2018-09-17T14:19:36.396Z,66.60
2018-09-17T14:22:04.922Z,66.50
2018-09-17T14:24:33.469Z,66.60
2018-09-17T14:27:01.991Z,66.70
2018-09-17T14:29:30.571Z,66.50
2018-09-17T14:32:04.472Z,66.80
2018-09-17T14:34:33.037Z,66.80
2018-09-17T14:37:01.604Z,67.00
2018-09-17T14:39:30.145Z,67.20
2018-09-17T14:41:58.665Z,67.20
2018-09-17T14:44:27.247Z,67.00
2018-09-17T14:46:55.762Z,67.00
2018-09-17T14:49:24.307Z,66.90
2018-09-17T14:51:52.905Z,67.60
2018-09-17T14:54:21.487Z,66.90
2018-09-17T14:56:50.252Z,67.00
2018-09-17T14:59:18.878Z,66.80
2018-09-17T15:01:47.541Z,67.00
2018-09-17T15:04:16.028Z,67.60
2018-09-17T15:06:44.546Z,67.00
2018-09-17T15:09:13.088Z,66.80
2018-09-17T15:11:41.596Z,67.00
2018-09-17T15:14:10.920Z,67.20
2018-09-17T15:16:39.639Z,67.20
2018-09-17T15:19:08.207Z,67.00
2018-09-17T15:21:36.820Z,67.00
2018-09-17T15:24:05.522Z,67.00
2018-09-17T15:26:34.218Z,67.00
2018-09-17T15:29:02.754Z,67.30
2018-09-17T15:31:31.303Z,67.40
2018-09-17T15:33:59.828Z,67.10
2018-09-17T15:36:28.647Z,67.00
2018-09-17T15:38:57.240Z,67.20
2018-09-17T15:41:25.959Z,67.30
2018-09-17T15:43:55.192Z,67.40
2018-09-17T15:46:23.758Z,67.50
2018-09-17T15:48:52.568Z,67.60
2018-09-17T15:51:21.118Z,67.50
2018-09-17T15:53:49.627Z,67.50
2018-09-17T15:56:18.204Z,67.70
2018-09-17T15:58:46.906Z,67.70
2018-09-17T16:01:15.677Z,67.70
2018-09-17T16:03:44.426Z,67.70
2018-09-17T16:06:14.076Z,67.70
2018-09-17T16:08:42.773Z,67.90
2018-09-17T16:11:11.299Z,68.00
2018-09-17T16:13:40.021Z,68.00
2018-09-17T16:16:09.125Z,69.00
2018-09-17T16:18:38.133Z,68.20
2018-09-17T16:21:06.836Z,68.40
2018-09-17T16:23:35.603Z,68.40
2018-09-17T16:26:04.290Z,68.50
2018-09-17T16:28:33.925Z,68.70
2018-09-17T16:31:03.181Z,68.90
2018-09-17T16:33:31.708Z,69.10
2018-09-17T16:36:00.366Z,69.20
2018-09-17T16:38:28.963Z,69.30
2018-09-17T16:40:58.481Z,69.30
2018-09-17T16:43:27.153Z,69.30
2018-09-17T16:45:55.799Z,69.40
2018-09-17T16:48:24.427Z,69.40
2018-09-17T16:50:53.331Z,70.40
2018-09-17T16:53:22.320Z,69.70
2018-09-17T16:55:50.817Z,69.80
2018-09-17T16:58:19.333Z,69.80
2018-09-17T17:00:48.053Z,69.90
2018-09-17T17:03:16.941Z,70.00
2018-09-17T17:05:46.904Z,70.00
2018-09-17T17:08:15.879Z,70.00
2018-09-17T17:10:44.596Z,70.30
2018-09-17T17:13:13.126Z,70.20
2018-09-17T17:15:45.497Z,70.30
2018-09-17T17:18:14.007Z,70.40
2018-09-17T17:20:42.553Z,70.50
2018-09-17T17:23:11.065Z,70.70
2018-09-17T17:25:39.621Z,70.70
2018-09-17T17:28:08.390Z,70.80
2018-09-17T17:30:37.005Z,70.90
2018-09-17T17:33:05.637Z,71.00
2018-09-17T17:35:34.351Z,70.90
2018-09-17T17:38:02.918Z,71.00
2018-09-17T17:40:31.570Z,71.20
2018-09-17T17:43:00.050Z,71.50
2018-09-17T17:45:28.572Z,71.70
2018-09-17T17:47:57.118Z,71.30
2018-09-17T17:50:25.629Z,71.30
2018-09-17T17:52:54.274Z,71.60
2018-09-17T17:55:22.916Z,71.70
2018-09-17T17:57:51.467Z,71.60
2018-09-17T18:00:20.035Z,71.80
2018-09-17T18:02:48.588Z,71.80
2018-09-17T18:05:17.112Z,71.90
2018-09-17T18:07:45.664Z,71.90
2018-09-17T18:10:14.529Z,72.00
2018-09-17T18:12:43.154Z,72.00
2018-09-17T18:15:11.783Z,72.20
2018-09-17T18:17:40.351Z,72.20
2018-09-17T18:20:09.146Z,73.00
2018-09-17T18:22:37.684Z,72.30
2018-09-17T18:25:06.908Z,72.30
2018-09-17T18:27:35.474Z,72.50
2018-09-17T18:30:04.099Z,72.40
2018-09-17T18:32:32.658Z,72.50
2018-09-17T18:35:01.449Z,72.60
2018-09-17T18:37:29.991Z,72.60
2018-09-17T18:39:58.508Z,72.60
2018-09-17T18:42:27.172Z,72.70
2018-09-17T18:44:55.834Z,72.80
2018-09-17T18:47:24.309Z,72.70
2018-09-17T18:49:52.859Z,72.70
2018-09-17T18:52:21.409Z,72.90
2018-09-17T18:54:50.069Z,72.80
2018-09-17T18:57:18.759Z,72.90
2018-09-17T18:59:47.229Z,73.00
2018-09-17T19:02:16.110Z,72.90
2018-09-17T19:04:44.639Z,72.60
2018-09-17T19:07:13.205Z,72.90
2018-09-17T19:09:48.783Z,73.00
2018-09-17T19:12:18.570Z,73.00
2018-09-17T19:17:19.962Z,73.00
2018-09-17T19:19:48.539Z,73.10
2018-09-17T19:22:22.675Z,73.00
2018-09-17T19:24:51.041Z,73.10
2018-09-17T19:27:19.742Z,73.30
2018-09-17T19:29:48.278Z,73.30
2018-09-17T19:32:17.057Z,73.20
2018-09-17T19:34:45.613Z,73.30
2018-09-17T19:38:21.690Z,73.40
2018-09-17T19:40:50.322Z,73.40
2018-09-17T19:43:18.923Z,73.50
2018-09-17T19:45:52.995Z,73.50
2018-09-17T19:48:21.671Z,73.60
2018-09-17T19:50:55.539Z,73.60
2018-09-17T19:53:24.069Z,73.50
2018-09-17T19:55:52.694Z,73.60
2018-09-17T19:58:26.494Z,73.30
2018-09-17T20:00:55.090Z,73.60
2018-09-17T20:03:23.672Z,73.60
2018-09-17T20:05:57.468Z,74.30
2018-09-17T20:08:26.031Z,73.60
2018-09-17T20:10:54.551Z,73.70
2018-09-17T20:13:23.101Z,73.80
2018-09-17T20:15:51.613Z,73.70
2018-09-17T20:18:20.184Z,73.80
2018-09-17T20:20:48.726Z,73.80
2018-09-17T20:23:17.357Z,73.80
2018-09-17T20:25:45.801Z,73.90
2018-09-17T20:28:14.314Z,73.80
2018-09-17T20:30:42.862Z,73.80
2018-09-17T20:33:11.433Z,73.80
2018-09-17T20:35:40.058Z,73.80
2018-09-17T20:38:08.561Z,73.80
2018-09-17T20:40:37.122Z,73.80
2018-09-17T20:43:05.678Z,74.00
2018-09-17T20:45:34.292Z,74.00
2018-09-17T20:48:02.759Z,74.80
2018-09-17T20:50:31.299Z,74.10
2018-09-17T20:52:59.817Z,74.20
2018-09-17T20:55:28.474Z,74.20
2018-09-17T20:57:56.918Z,74.30
2018-09-17T21:00:25.486Z,74.30
2018-09-17T21:02:54.006Z,74.30
2018-09-17T21:05:22.545Z,74.40
2018-09-17T21:07:51.058Z,74.50
2018-09-17T21:10:19.590Z,74.50
2018-09-17T21:12:48.106Z,74.50
2018-09-17T21:15:16.662Z,74.50
2018-09-17T21:17:45.251Z,74.40
2018-09-17T21:20:13.835Z,75.30
2018-09-17T21:22:42.353Z,74.30
2018-09-17T21:25:10.988Z,74.20
2018-09-17T21:27:39.437Z,74.20
2018-09-17T21:30:08.007Z,74.20
2018-09-17T21:32:36.538Z,74.30
2018-09-17T21:35:05.168Z,74.30
2018-09-17T21:37:33.689Z,74.40
2018-09-17T21:40:02.255Z,74.40
2018-09-17T21:42:30.793Z,74.50
2018-09-17T21:44:59.305Z,74.50
2018-09-17T21:47:27.919Z,74.60
2018-09-17T21:49:56.440Z,74.70
2018-09-17T21:52:25.093Z,74.80
2018-09-17T21:54:53.528Z,74.90
2018-09-17T21:57:22.073Z,74.70
2018-09-17T21:59:50.609Z,74.70
2018-09-17T22:02:19.217Z,74.80
2018-09-17T22:04:47.710Z,74.70
2018-09-17T22:07:16.245Z,74.80
2018-09-17T22:09:44.761Z,74.80
2018-09-17T22:12:13.314Z,75.00
2018-09-17T22:14:41.828Z,75.00
2018-09-17T22:17:10.342Z,75.00
2018-09-17T22:19:38.864Z,75.10
2018-09-17T22:22:07.431Z,75.10
2018-09-17T22:24:35.945Z,75.00
2018-09-17T22:27:04.499Z,75.10
2018-09-17T22:29:33.029Z,75.00
2018-09-17T22:32:01.669Z,74.90
2018-09-17T22:34:30.188Z,74.90
2018-09-17T22:36:58.748Z,75.00
2018-09-17T22:39:27.279Z,74.90
2018-09-17T22:41:55.830Z,75.00
2018-09-17T22:44:24.359Z,75.00
2018-09-17T22:46:52.958Z,74.90
2018-09-17T22:49:21.481Z,75.60
2018-09-17T22:51:50.394Z,75.00
2018-09-17T22:54:18.981Z,75.00
2018-09-17T22:56:47.523Z,75.20
2018-09-17T22:59:16.132Z,75.60
2018-09-17T23:01:44.694Z,76.30
2018-09-17T23:04:13.210Z,77.00
2018-09-17T23:06:41.744Z,79.50
2018-09-17T23:09:11.169Z,80.60
2018-09-17T23:11:39.688Z,80.90
2018-09-17T23:14:08.217Z,81.30
2018-09-17T23:16:36.768Z,81.70
2018-09-17T23:19:05.322Z,81.80
2018-09-17T23:21:33.845Z,82.40
2018-09-17T23:24:02.389Z,83.30
2018-09-17T23:26:30.913Z,86.10
2018-09-17T23:28:59.467Z,85.60
2018-09-17T23:31:27.997Z,86.00
2018-09-17T23:33:56.507Z,87.00
2018-09-17T23:36:25.059Z,88.00
2018-09-17T23:41:21.975Z,75.70
2018-09-17T23:43:50.548Z,81.80
2018-09-17T23:46:19.067Z,83.80
2018-09-17T23:48:47.617Z,83.90
2018-09-17T23:51:16.127Z,84.00
2018-09-17T23:53:44.662Z,84.10
2018-09-17T23:56:13.172Z,84.30
2018-09-17T23:58:41.952Z,84.00
